createdAt,value
2023-05-19T00:01:25.797Z,4.40
2023-05-19T00:03:55.832Z,4.70
2023-05-19T00:06:25.478Z,3.45
2023-05-19T00:08:58.612Z,3.95
2023-05-19T00:11:27.560Z,3.65
2023-05-19T00:13:56.396Z,3.30
2023-05-19T00:16:25.966Z,3.40
2023-05-19T00:18:54.194Z,3.53
2023-05-19T00:21:21.991Z,3.10
2023-05-19T00:23:49.868Z,3.10
2023-05-19T00:26:19.040Z,2.83
2023-05-19T00:28:46.581Z,3.08
2023-05-19T00:31:14.137Z,3.00
2023-05-19T00:33:41.747Z,3.35
2023-05-19T00:36:09.912Z,3.25
2023-05-19T00:38:38.466Z,3.73
2023-05-19T00:41:07.444Z,4.32
2023-05-19T00:43:36.402Z,4.65
2023-05-19T00:46:04.279Z,5.07
2023-05-19T00:48:31.918Z,4.00
2023-05-19T00:51:04.489Z,4.77
2023-05-19T00:53:34.273Z,3.92
2023-05-19T00:56:02.784Z,3.72
2023-05-19T00:58:32.602Z,3.38
2023-05-19T01:01:03.454Z,3.90
2023-05-19T01:03:35.040Z,3.67
2023-05-19T01:06:04.916Z,3.45
2023-05-19T01:08:33.276Z,3.58
2023-05-19T01:11:01.374Z,3.35
2023-05-19T01:13:30.040Z,2.85
2023-05-19T01:16:06.610Z,3.60
2023-05-19T01:18:51.538Z,3.70
2023-05-19T01:22:03.497Z,3.28
2023-05-19T01:24:53.331Z,2.58
2023-05-19T01:27:35.708Z,4.22
2023-05-19T01:30:25.332Z,3.13
2023-05-19T01:32:55.131Z,3.85
2023-05-19T01:35:24.677Z,2.90
2023-05-19T01:37:55.288Z,3.20
2023-05-19T01:40:25.638Z,4.15
2023-05-19T01:42:57.534Z,3.20
2023-05-19T01:45:28.756Z,2.55
2023-05-19T01:47:58.679Z,2.40
2023-05-19T01:50:26.965Z,3.08
2023-05-19T01:52:55.244Z,2.33
2023-05-19T01:55:23.857Z,2.70
2023-05-19T01:58:01.786Z,2.65
2023-05-19T02:00:43.040Z,2.83
2023-05-19T02:03:26.210Z,4.85
2023-05-19T02:06:00.204Z,6.15
2023-05-19T02:08:31.665Z,3.57
2023-05-19T02:11:03.760Z,3.45
2023-05-19T02:13:37.743Z,3.03
2023-05-19T02:16:08.131Z,3.17
2023-05-19T02:18:36.218Z,3.35
2023-05-19T02:21:03.953Z,4.80
2023-05-19T02:23:31.895Z,4.40
2023-05-19T02:25:59.496Z,4.80
2023-05-19T02:28:28.360Z,12.15
2023-05-19T02:30:55.922Z,16.17
2023-05-19T02:33:25.994Z,7.57
2023-05-19T02:35:53.741Z,4.45
2023-05-19T02:38:21.340Z,6.10
2023-05-19T02:40:48.853Z,3.58
2023-05-19T02:43:16.363Z,2.70
2023-05-19T02:45:43.959Z,2.50
2023-05-19T02:48:17.469Z,2.90
2023-05-19T02:50:46.375Z,2.63
2023-05-19T02:53:13.878Z,3.05
2023-05-19T02:55:41.362Z,8.07
2023-05-19T02:58:08.862Z,3.20
2023-05-19T03:00:36.378Z,2.15
2023-05-19T03:03:04.535Z,4.85
2023-05-19T03:05:32.281Z,4.00
2023-05-19T03:08:01.140Z,2.90
2023-05-19T03:10:28.699Z,2.53
2023-05-19T03:12:56.224Z,2.70
2023-05-19T03:15:23.746Z,2.72
2023-05-19T03:17:51.921Z,3.60
2023-05-19T03:20:19.705Z,3.75
2023-05-19T03:22:47.241Z,2.53
2023-05-19T03:25:16.102Z,2.28
2023-05-19T03:27:43.774Z,2.65
2023-05-19T03:30:12.581Z,2.20
2023-05-19T03:32:40.192Z,2.45
2023-05-19T03:35:08.233Z,2.57
2023-05-19T03:37:35.739Z,2.90
2023-05-19T03:40:04.864Z,3.55
2023-05-19T03:42:33.728Z,2.85
2023-05-19T03:45:01.298Z,2.28
2023-05-19T03:47:28.810Z,2.07
2023-05-19T03:49:56.533Z,1.92
2023-05-19T03:52:24.088Z,2.20
2023-05-19T03:54:52.910Z,2.25
2023-05-19T03:57:21.425Z,2.63
2023-05-19T03:59:50.351Z,3.53
2023-05-19T04:02:17.914Z,3.53
2023-05-19T04:04:45.620Z,2.78
2023-05-19T04:07:13.190Z,2.75
2023-05-19T04:09:40.676Z,2.45
2023-05-19T04:12:12.316Z,2.70
2023-05-19T04:14:39.936Z,2.95
2023-05-19T04:17:09.203Z,3.33
2023-05-19T04:19:36.691Z,4.00
2023-05-19T04:22:04.443Z,2.90
2023-05-19T04:24:31.991Z,2.97
2023-05-19T04:27:02.503Z,3.80
2023-05-19T04:29:30.430Z,2.15
2023-05-19T04:31:58.113Z,2.58
2023-05-19T04:34:28.663Z,2.40
2023-05-19T04:36:56.428Z,5.13
2023-05-19T04:39:23.965Z,4.38
2023-05-19T04:41:51.588Z,4.55
2023-05-19T04:44:19.220Z,4.57
2023-05-19T04:46:46.835Z,3.90
2023-05-19T04:49:14.462Z,3.00
2023-05-19T04:51:43.350Z,2.80
2023-05-19T04:54:11.141Z,2.72
2023-05-19T04:56:38.824Z,2.55
2023-05-19T04:59:06.804Z,2.55
2023-05-19T05:01:34.351Z,3.13
2023-05-19T05:04:02.674Z,2.28
2023-05-19T05:06:31.655Z,1.92
2023-05-19T05:09:00.888Z,1.85
2023-05-19T05:11:29.004Z,1.98
2023-05-19T05:13:58.020Z,2.30
2023-05-19T05:16:26.827Z,2.42
2023-05-19T05:18:54.967Z,2.10
2023-05-19T05:21:23.690Z,1.65
2023-05-19T05:23:51.887Z,1.80
2023-05-19T05:26:23.109Z,2.20
2023-05-19T05:28:50.882Z,2.17
2023-05-19T05:31:18.466Z,2.30
2023-05-19T05:33:46.526Z,2.15
2023-05-19T05:36:14.689Z,2.28
2023-05-19T05:38:42.327Z,2.33
2023-05-19T05:41:09.927Z,2.67
2023-05-19T05:43:38.837Z,2.58
2023-05-19T05:46:06.694Z,2.25
2023-05-19T05:48:35.099Z,2.80
2023-05-19T05:51:05.534Z,1.80
2023-05-19T05:53:39.545Z,1.80
2023-05-19T05:56:07.982Z,1.83
2023-05-19T05:58:37.582Z,1.95
2023-05-19T06:01:10.475Z,1.80
2023-05-19T06:03:38.994Z,1.70
2023-05-19T06:06:06.849Z,2.05
2023-05-19T06:08:34.619Z,2.20
2023-05-19T06:11:07.949Z,2.17
2023-05-19T06:13:36.083Z,2.15
2023-05-19T06:16:03.696Z,2.00
2023-05-19T06:18:32.730Z,2.28
2023-05-19T06:21:01.551Z,2.15
2023-05-19T06:23:29.216Z,1.98
2023-05-19T06:25:57.677Z,2.20
2023-05-19T06:28:25.198Z,1.90
2023-05-19T06:30:52.742Z,1.92
2023-05-19T06:33:20.282Z,2.50
2023-05-19T06:35:49.162Z,2.38
2023-05-19T06:38:16.694Z,1.85
2023-05-19T06:40:44.337Z,2.00
2023-05-19T06:43:11.850Z,1.75
2023-05-19T06:45:39.287Z,1.80
2023-05-19T06:48:06.914Z,1.20
2023-05-19T06:50:34.530Z,1.65
2023-05-19T06:53:03.661Z,1.30
2023-05-19T06:55:32.091Z,1.60
2023-05-19T06:57:59.556Z,1.73
2023-05-19T07:00:26.993Z,1.55
2023-05-19T07:02:54.546Z,1.70
2023-05-19T07:05:22.279Z,1.30
2023-05-19T07:07:49.723Z,1.15
2023-05-19T07:10:18.641Z,1.77
2023-05-19T07:12:46.142Z,1.20
2023-05-19T07:15:13.613Z,1.73
2023-05-19T07:17:41.238Z,1.30
2023-05-19T07:20:10.735Z,1.55
2023-05-19T07:22:39.580Z,0.98
2023-05-19T07:25:07.996Z,1.38
2023-05-19T07:27:36.937Z,0.80
2023-05-19T07:30:04.948Z,1.37
2023-05-19T07:32:32.479Z,1.15
2023-05-19T07:34:59.957Z,1.23
2023-05-19T07:37:27.409Z,0.80
2023-05-19T07:39:54.951Z,1.75
2023-05-19T07:42:22.479Z,2.00
2023-05-19T07:44:51.467Z,1.10
2023-05-19T07:47:18.924Z,1.08
2023-05-19T07:49:48.177Z,1.30
2023-05-19T07:52:18.151Z,1.20
2023-05-19T07:54:46.353Z,1.67
2023-05-19T07:57:14.396Z,1.67
2023-05-19T07:59:41.888Z,1.30
2023-05-19T08:02:10.901Z,0.82
2023-05-19T08:04:38.458Z,1.10
2023-05-19T08:07:06.160Z,0.97
2023-05-19T08:09:33.751Z,1.33
2023-05-19T08:12:02.101Z,1.73
2023-05-19T08:14:29.595Z,0.73
2023-05-19T08:16:57.069Z,1.15
2023-05-19T08:19:26.791Z,1.23
2023-05-19T08:21:54.289Z,1.38
2023-05-19T08:24:21.744Z,1.17
2023-05-19T08:26:49.190Z,1.60
2023-05-19T08:29:16.660Z,1.50
2023-05-19T08:31:44.178Z,1.07
2023-05-19T08:34:11.779Z,1.20
2023-05-19T08:36:40.746Z,1.60
2023-05-19T08:39:08.332Z,1.80
2023-05-19T08:41:35.856Z,1.30
2023-05-19T08:44:03.410Z,1.67
2023-05-19T08:46:31.428Z,1.35
2023-05-19T08:49:05.849Z,1.42
2023-05-19T08:51:41.852Z,1.20
2023-05-19T08:54:15.615Z,1.20
2023-05-19T08:56:44.424Z,0.63
2023-05-19T08:59:14.318Z,1.30
2023-05-19T09:01:45.308Z,0.90
2023-05-19T09:04:17.703Z,1.50
2023-05-19T09:06:46.803Z,1.35
2023-05-19T09:09:15.449Z,1.60
2023-05-19T09:11:47.090Z,1.27
2023-05-19T09:14:14.721Z,1.25
2023-05-19T09:16:42.857Z,1.20
2023-05-19T09:19:15.357Z,1.10
2023-05-19T09:21:44.549Z,1.60
2023-05-19T09:24:13.825Z,1.40
2023-05-19T09:26:42.156Z,1.52
2023-05-19T09:29:13.751Z,1.33
2023-05-19T09:31:48.688Z,1.48
2023-05-19T09:34:16.405Z,1.57
2023-05-19T09:36:43.979Z,1.58
2023-05-19T09:39:16.795Z,1.50
2023-05-19T09:41:44.815Z,1.95
2023-05-19T09:44:22.279Z,1.70
2023-05-19T09:46:50.898Z,1.40
2023-05-19T09:49:22.681Z,1.20
2023-05-19T09:51:51.915Z,1.70
2023-05-19T09:54:21.588Z,1.13
2023-05-19T09:56:52.991Z,1.70
2023-05-19T09:59:24.916Z,1.10
2023-05-19T10:01:55.221Z,1.20
2023-05-19T10:04:23.831Z,1.85
2023-05-19T10:06:54.234Z,1.10
2023-05-19T10:09:28.617Z,1.00
2023-05-19T10:11:57.250Z,1.57
2023-05-19T10:14:25.888Z,1.70
2023-05-19T10:16:55.240Z,1.00
2023-05-19T10:19:24.249Z,0.90
2023-05-19T10:21:52.721Z,1.50
2023-05-19T10:24:21.286Z,1.30
2023-05-19T10:26:54.049Z,1.20
2023-05-19T10:29:23.912Z,1.00
2023-05-19T10:31:53.758Z,1.05
2023-05-19T10:34:57.174Z,1.30
2023-05-19T10:37:33.108Z,1.10
2023-05-19T10:40:01.354Z,1.52
2023-05-19T10:42:37.793Z,1.10
2023-05-19T10:45:14.566Z,1.10
2023-05-19T10:47:42.371Z,1.52
2023-05-19T10:50:11.209Z,1.47
2023-05-19T10:52:39.703Z,1.75
2023-05-19T10:55:09.991Z,1.50
2023-05-19T10:57:38.873Z,1.55
2023-05-19T11:00:31.199Z,1.05
2023-05-19T11:03:14.397Z,1.40
2023-05-19T11:05:42.431Z,1.23
2023-05-19T11:08:12.022Z,1.65
2023-05-19T11:10:39.631Z,1.60
2023-05-19T11:13:08.539Z,1.63
2023-05-19T11:15:37.438Z,1.20
2023-05-19T11:18:05.678Z,1.60
2023-05-19T11:20:34.632Z,1.55
2023-05-19T11:23:09.862Z,1.27
2023-05-19T11:25:45.523Z,1.13
2023-05-19T11:28:17.252Z,1.33
2023-05-19T11:30:46.355Z,1.35
2023-05-19T11:33:14.556Z,1.30
2023-05-19T11:35:43.202Z,1.75
2023-05-19T11:38:12.388Z,1.48
2023-05-19T11:40:40.404Z,1.00
2023-05-19T11:43:07.863Z,1.48
2023-05-19T11:45:37.010Z,1.75
2023-05-19T11:48:05.315Z,1.25
2023-05-19T11:50:33.633Z,1.30
2023-05-19T11:53:02.573Z,1.50
2023-05-19T11:55:30.929Z,1.73
2023-05-19T12:00:31.545Z,1.70
2023-05-19T12:03:00.895Z,1.45
2023-05-19T12:05:29.203Z,0.90
2023-05-19T12:07:56.799Z,2.15
2023-05-19T12:10:25.184Z,1.83
2023-05-19T12:12:53.251Z,1.67
2023-05-19T12:15:21.890Z,1.65
2023-05-19T12:17:51.147Z,1.83
2023-05-19T12:20:20.667Z,1.45
2023-05-19T12:22:49.036Z,1.38
2023-05-19T12:25:17.159Z,1.20
2023-05-19T12:27:45.835Z,1.70
2023-05-19T12:30:14.069Z,1.50
2023-05-19T12:32:41.644Z,1.00
2023-05-19T12:35:10.425Z,1.08
2023-05-19T12:37:42.727Z,1.42
2023-05-19T12:40:11.305Z,1.65
2023-05-19T12:42:38.760Z,1.80
2023-05-19T12:45:07.236Z,1.55
2023-05-19T12:47:35.745Z,1.77
2023-05-19T12:50:05.319Z,1.02
2023-05-19T12:52:36.092Z,1.13
2023-05-19T12:55:07.392Z,0.77
2023-05-19T12:57:35.917Z,2.15
2023-05-19T13:00:06.800Z,1.45
2023-05-19T13:02:36.150Z,1.90
2023-05-19T13:05:04.701Z,1.30
2023-05-19T13:07:32.252Z,1.50
2023-05-19T13:09:59.697Z,1.30
2023-05-19T13:12:29.014Z,1.27
2023-05-19T13:14:56.535Z,1.30
2023-05-19T13:17:24.599Z,1.65
2023-05-19T13:19:52.254Z,1.30
2023-05-19T13:22:19.757Z,1.02
2023-05-19T13:24:48.131Z,1.33
2023-05-19T13:27:15.670Z,1.20
2023-05-19T13:29:44.608Z,1.08
2023-05-19T13:32:12.139Z,1.13
2023-05-19T13:34:39.634Z,1.20
2023-05-19T13:37:10.072Z,1.33
2023-05-19T13:39:37.747Z,1.13
2023-05-19T13:42:06.245Z,1.48
2023-05-19T13:44:33.923Z,0.87
2023-05-19T13:47:02.808Z,1.08
2023-05-19T13:49:30.395Z,1.00
2023-05-19T13:51:58.117Z,1.30
2023-05-19T13:54:25.634Z,1.30
2023-05-19T13:56:53.144Z,1.30
2023-05-19T13:59:21.382Z,0.95
2023-05-19T14:01:49.159Z,1.10
2023-05-19T14:04:19.516Z,1.10
2023-05-19T14:06:47.382Z,1.38
2023-05-19T14:09:14.854Z,0.90
2023-05-19T14:11:42.350Z,0.95
2023-05-19T14:14:11.446Z,1.40
2023-05-19T14:16:39.314Z,0.70
2023-05-19T14:19:06.916Z,1.63
2023-05-19T14:21:36.757Z,0.87
2023-05-19T14:24:04.554Z,1.05
2023-05-19T14:26:32.007Z,1.02
2023-05-19T14:28:59.797Z,0.73
2023-05-19T14:31:27.327Z,1.15
2023-05-19T14:33:55.316Z,1.40
2023-05-19T14:36:22.907Z,1.15
2023-05-19T14:38:54.486Z,0.65
2023-05-19T14:41:22.237Z,0.95
2023-05-19T14:43:49.704Z,0.98
2023-05-19T14:46:17.169Z,1.00
2023-05-19T14:48:44.630Z,1.30
2023-05-19T14:51:12.089Z,1.75
2023-05-19T14:53:39.511Z,1.33
2023-05-19T14:56:09.029Z,1.60
2023-05-19T14:58:36.485Z,1.30
2023-05-19T15:01:04.139Z,1.02
2023-05-19T15:03:31.708Z,0.90
2023-05-19T15:05:59.451Z,1.30
2023-05-19T15:08:27.126Z,2.03
2023-05-19T15:10:54.585Z,0.87
2023-05-19T15:13:23.397Z,1.02
2023-05-19T15:16:08.441Z,1.15
2023-05-19T15:18:48.634Z,1.17
2023-05-19T15:21:18.512Z,1.30
2023-05-19T15:23:46.250Z,1.20
2023-05-19T15:26:14.215Z,1.10
2023-05-19T15:28:43.093Z,0.88
2023-05-19T15:31:10.666Z,1.08
2023-05-19T15:33:38.222Z,1.17
2023-05-19T15:36:06.889Z,1.00
2023-05-19T15:38:36.566Z,1.63
2023-05-19T15:41:07.719Z,1.42
2023-05-19T15:43:35.256Z,1.13
2023-05-19T15:46:04.880Z,0.90
2023-05-19T15:48:32.714Z,0.80
2023-05-19T15:51:01.340Z,1.42
2023-05-19T15:53:28.901Z,1.52
2023-05-19T15:55:57.244Z,1.23
2023-05-19T15:58:24.715Z,0.90
2023-05-19T16:00:52.297Z,1.20
2023-05-19T16:03:22.336Z,0.90
2023-05-19T16:05:49.855Z,0.80
2023-05-19T16:08:17.665Z,1.40
2023-05-19T16:10:45.157Z,1.45
2023-05-19T16:13:12.696Z,0.90
2023-05-19T16:15:40.496Z,1.45
2023-05-19T16:18:08.143Z,1.65
2023-05-19T16:20:37.019Z,1.02
2023-05-19T16:23:04.477Z,1.60
2023-05-19T16:25:32.151Z,1.57
2023-05-19T16:27:59.747Z,2.08
2023-05-19T16:30:28.004Z,1.42
2023-05-19T16:32:55.743Z,1.50
2023-05-19T16:35:23.492Z,1.10
2023-05-19T16:37:52.292Z,1.10
2023-05-19T16:40:19.879Z,0.85
2023-05-19T16:42:47.426Z,0.85
2023-05-19T16:45:17.289Z,3.20
2023-05-19T16:47:44.830Z,3.15
2023-05-19T16:50:12.824Z,1.77
2023-05-19T16:52:40.440Z,0.90
2023-05-19T16:55:10.828Z,1.20
2023-05-19T16:57:38.309Z,2.28
2023-05-19T17:00:06.767Z,1.38
2023-05-19T17:02:34.388Z,1.07
2023-05-19T17:05:01.897Z,1.30
2023-05-19T17:07:29.931Z,1.05
2023-05-19T17:09:57.475Z,1.20
2023-05-19T17:12:26.459Z,1.10
2023-05-19T17:14:53.930Z,1.30
2023-05-19T17:17:21.387Z,1.35
2023-05-19T17:19:48.867Z,1.50
2023-05-19T17:22:16.385Z,3.90
2023-05-19T17:24:43.860Z,1.73
2023-05-19T17:27:11.304Z,0.80
2023-05-19T17:29:40.128Z,0.90
2023-05-19T17:32:08.039Z,1.00
2023-05-19T17:34:35.634Z,0.80
2023-05-19T17:37:03.172Z,1.25
2023-05-19T17:39:30.641Z,1.20
2023-05-19T17:41:58.121Z,0.95
2023-05-19T17:44:25.691Z,1.20
2023-05-19T17:46:54.779Z,1.10
2023-05-19T17:49:22.987Z,1.20
2023-05-19T17:51:51.104Z,1.13
2023-05-19T17:54:21.248Z,1.33
2023-05-19T17:56:51.027Z,1.40
2023-05-19T17:59:19.144Z,1.00
2023-05-19T18:01:47.123Z,1.40
2023-05-19T18:04:17.028Z,1.07
2023-05-19T18:06:45.956Z,1.08
2023-05-19T18:09:15.007Z,1.00
2023-05-19T18:11:42.661Z,1.00
2023-05-19T18:14:10.364Z,1.15
2023-05-19T18:16:37.995Z,1.10
2023-05-19T18:19:05.665Z,1.17
2023-05-19T18:21:34.627Z,0.98
2023-05-19T18:24:04.340Z,1.13
2023-05-19T18:26:32.953Z,1.15
2023-05-19T18:29:02.746Z,1.00
2023-05-19T18:31:30.536Z,1.20
2023-05-19T18:33:58.109Z,1.20
2023-05-19T18:36:25.662Z,1.10
2023-05-19T18:38:58.079Z,1.20
2023-05-19T18:41:26.102Z,1.17
2023-05-19T18:43:53.943Z,1.15
2023-05-19T18:46:21.732Z,0.98
2023-05-19T18:48:50.660Z,1.23
2023-05-19T18:51:19.806Z,1.10
2023-05-19T18:53:49.303Z,1.00
2023-05-19T18:56:26.060Z,1.27
2023-05-19T18:58:54.060Z,0.77
2023-05-19T19:01:21.727Z,1.10
2023-05-19T19:03:49.538Z,2.05
2023-05-19T19:06:18.088Z,1.00
2023-05-19T19:08:46.102Z,1.10
2023-05-19T19:11:14.032Z,0.90
2023-05-19T19:13:43.558Z,1.00
2023-05-19T19:16:11.197Z,0.90
2023-05-19T19:18:38.962Z,0.90
2023-05-19T19:21:06.651Z,1.10
2023-05-19T19:23:34.584Z,1.35
2023-05-19T19:26:02.348Z,1.00
2023-05-19T19:28:30.180Z,1.08
2023-05-19T19:30:59.104Z,1.20
2023-05-19T19:33:26.634Z,0.90
2023-05-19T19:35:54.422Z,1.13
2023-05-19T19:38:22.363Z,1.50
2023-05-19T19:40:51.888Z,1.45
2023-05-19T19:43:19.595Z,1.40
2023-05-19T19:45:47.280Z,1.25
2023-05-19T19:48:16.210Z,0.90
2023-05-19T19:50:43.734Z,1.20
2023-05-19T19:53:11.518Z,0.90
2023-05-19T19:55:39.097Z,0.97
2023-05-19T19:58:06.805Z,0.93
2023-05-19T20:00:34.668Z,1.10
2023-05-19T20:03:05.797Z,1.65
2023-05-19T20:05:35.200Z,1.10
2023-05-19T20:08:02.766Z,1.30
2023-05-19T20:10:33.233Z,1.27
2023-05-19T20:13:01.080Z,1.20
2023-05-19T20:15:28.807Z,1.15
2023-05-19T20:17:56.652Z,1.27
2023-05-19T20:20:24.259Z,1.20
2023-05-19T20:22:53.270Z,1.17
2023-05-19T20:25:21.204Z,1.13
2023-05-19T20:27:48.780Z,1.40
2023-05-19T20:30:16.425Z,2.67
2023-05-19T20:32:46.496Z,2.50
2023-05-19T20:35:14.503Z,1.90
2023-05-19T20:37:42.121Z,1.45
2023-05-19T20:40:11.787Z,1.60
2023-05-19T20:42:40.446Z,1.40
2023-05-19T20:45:09.016Z,1.60
2023-05-19T20:47:36.744Z,1.58
2023-05-19T20:50:07.254Z,1.52
2023-05-19T20:52:34.906Z,1.73
2023-05-19T20:55:02.509Z,1.38
2023-05-19T20:57:31.455Z,1.70
2023-05-19T21:00:00.002Z,2.00
2023-05-19T21:02:27.725Z,2.15
2023-05-19T21:04:55.451Z,1.83
2023-05-19T21:07:24.169Z,1.67
2023-05-19T21:09:53.631Z,1.30
2023-05-19T21:12:24.916Z,1.33
2023-05-19T21:14:53.905Z,1.40
2023-05-19T21:17:21.580Z,0.95
2023-05-19T21:19:50.705Z,1.35
2023-05-19T21:22:18.640Z,1.30
2023-05-19T21:24:46.253Z,1.20
2023-05-19T21:27:13.800Z,1.30
2023-05-19T21:29:41.424Z,0.90
2023-05-19T21:32:10.503Z,1.20
2023-05-19T21:34:38.793Z,1.03
2023-05-19T21:37:06.468Z,0.98
2023-05-19T21:39:34.075Z,0.90
2023-05-19T21:42:01.664Z,1.13
2023-05-19T21:44:32.376Z,1.48
2023-05-19T21:47:00.022Z,1.90
2023-05-19T21:49:29.114Z,2.70
2023-05-19T21:51:56.794Z,1.20
2023-05-19T21:54:24.441Z,1.10
2023-05-19T21:56:52.171Z,1.00
2023-05-19T21:59:23.056Z,1.10
2023-05-19T22:01:50.831Z,1.10
2023-05-19T22:04:18.885Z,1.30
2023-05-19T22:06:47.906Z,1.20
2023-05-19T22:09:15.495Z,1.70
2023-05-19T22:11:43.166Z,1.63
2023-05-19T22:14:10.741Z,1.20
2023-05-19T22:16:38.504Z,1.80
2023-05-19T22:19:06.166Z,1.30
2023-05-19T22:21:33.805Z,1.27
2023-05-19T22:24:02.832Z,1.20
2023-05-19T22:26:30.383Z,1.27
2023-05-19T22:28:57.917Z,1.05
2023-05-19T22:31:25.446Z,0.98
2023-05-19T22:33:52.983Z,1.02
2023-05-19T22:36:20.522Z,0.67
2023-05-19T22:38:48.099Z,0.90
2023-05-19T22:41:16.963Z,0.98
2023-05-19T22:43:44.499Z,1.08
2023-05-19T22:46:12.097Z,1.10
2023-05-19T22:48:39.680Z,1.23
2023-05-19T22:51:07.368Z,1.40
2023-05-19T22:53:34.954Z,1.40
2023-05-19T22:56:02.448Z,1.00
2023-05-19T22:58:31.501Z,1.23
2023-05-19T23:00:59.053Z,1.63
2023-05-19T23:03:26.578Z,1.80
2023-05-19T23:05:54.189Z,1.40
2023-05-19T23:08:21.771Z,1.08
2023-05-19T23:10:49.398Z,1.30
2023-05-19T23:13:17.577Z,1.00
2023-05-19T23:15:46.476Z,1.10
2023-05-19T23:18:15.023Z,1.00
2023-05-19T23:20:42.556Z,1.05
2023-05-19T23:23:10.131Z,1.10
2023-05-19T23:25:37.636Z,1.20
2023-05-19T23:28:05.533Z,1.33
2023-05-19T23:30:33.135Z,1.33
2023-05-19T23:33:02.077Z,1.35
2023-05-19T23:35:29.809Z,1.30
2023-05-19T23:37:57.412Z,1.40
2023-05-19T23:40:24.982Z,1.10
2023-05-19T23:42:52.534Z,1.67
2023-05-19T23:45:20.114Z,1.30
2023-05-19T23:47:47.678Z,1.48
2023-05-19T23:50:16.846Z,1.17
2023-05-19T23:52:44.411Z,1.20
2023-05-19T23:55:13.680Z,1.30
2023-05-19T23:57:41.253Z,1.20
